Aviation Digital Data Service (ADDS)

Output produced by TAFs form (0026 UTC 27 May 2017)
found at http://www.aviationweather.gov/adds/tafs/
 
METAR text: RJOW 270000Z 32004KT 280V360 9999 FEW020 SCT025 18/09 Q1013
Conditions at: RJOW (IWAMI , JP) observed 0000 UTC 27 May 2017
Temperature: 18.0°C (64°F)
Dewpoint: 9.0°C (48°F) [RH = 56%]
Pressure (altimeter): 29.91 inches Hg (1013.0 mb)
Winds: from the NW (320 degrees) at 5 MPH (4 knots; 2.1 m/s)
Visibility: 6 or more miles (10+ km)
Ceiling: at least 12,000 feet AGL
Clouds: few clouds at 2000 feet AGL
scattered clouds at 2500 feet AGL
Weather: no significant weather observed at this time